sensor_id;sensor_type;location;lat;lon;timestamp;temperature;humidity
70734;DHT22;58320;48.804;9.252;2023-09-18T00:01:51;19.40;75.60
70734;DHT22;58320;48.804;9.252;2023-09-18T00:04:17;19.40;75.40
70734;DHT22;58320;48.804;9.252;2023-09-18T00:06:42;19.40;75.40
70734;DHT22;58320;48.804;9.252;2023-09-18T00:09:08;19.40;75.50
70734;DHT22;58320;48.804;9.252;2023-09-18T00:11:37;19.40;75.50
70734;DHT22;58320;48.804;9.252;2023-09-18T00:14:04;19.40;75.30
70734;DHT22;58320;48.804;9.252;2023-09-18T00:16:30;19.40;75.70
70734;DHT22;58320;48.804;9.252;2023-09-18T00:18:55;19.60;75.30
70734;DHT22;58320;48.804;9.252;2023-09-18T00:21:21;19.60;75.00
70734;DHT22;58320;48.804;9.252;2023-09-18T00:23:47;19.60;75.10
70734;DHT22;58320;48.804;9.252;2023-09-18T00:26:13;19.60;75.30
70734;DHT22;58320;48.804;9.252;2023-09-18T00:28:38;19.60;75.30
70734;DHT22;58320;48.804;9.252;2023-09-18T00:31:04;19.70;75.00
70734;DHT22;58320;48.804;9.252;2023-09-18T00:33:31;19.80;74.70
70734;DHT22;58320;48.804;9.252;2023-09-18T00:35:56;19.90;74.20
70734;DHT22;58320;48.804;9.252;2023-09-18T00:38:22;19.90;73.90
70734;DHT22;58320;48.804;9.252;2023-09-18T00:40:48;19.90;73.90
70734;DHT22;58320;48.804;9.252;2023-09-18T00:43:14;20.00;73.60
70734;DHT22;58320;48.804;9.252;2023-09-18T00:45:44;19.90;73.80
70734;DHT22;58320;48.804;9.252;2023-09-18T00:48:11;19.90;73.60
70734;DHT22;58320;48.804;9.252;2023-09-18T00:50:37;19.90;73.50
70734;DHT22;58320;48.804;9.252;2023-09-18T00:53:04;19.90;73.50
70734;DHT22;58320;48.804;9.252;2023-09-18T00:55:30;19.90;73.40
70734;DHT22;58320;48.804;9.252;2023-09-18T00:57:57;19.90;73.60
70734;DHT22;58320;48.804;9.252;2023-09-18T01:00:24;19.90;73.60
70734;DHT22;58320;48.804;9.252;2023-09-18T01:02:50;20.00;73.40
70734;DHT22;58320;48.804;9.252;2023-09-18T01:05:16;20.00;73.30
70734;DHT22;58320;48.804;9.252;2023-09-18T01:07:42;20.00;73.10
70734;DHT22;58320;48.804;9.252;2023-09-18T01:10:09;20.10;72.90
70734;DHT22;58320;48.804;9.252;2023-09-18T01:13:08;20.10;72.80
70734;DHT22;58320;48.804;9.252;2023-09-18T01:15:48;20.10;72.80
70734;DHT22;58320;48.804;9.252;2023-09-18T01:18:19;20.20;72.70
70734;DHT22;58320;48.804;9.252;2023-09-18T01:20:45;20.20;72.40
70734;DHT22;58320;48.804;9.252;2023-09-18T01:23:11;20.20;72.20
70734;DHT22;58320;48.804;9.252;2023-09-18T01:25:37;20.30;71.80
70734;DHT22;58320;48.804;9.252;2023-09-18T01:28:03;20.30;71.40
70734;DHT22;58320;48.804;9.252;2023-09-18T01:30:29;20.40;71.00
70734;DHT22;58320;48.804;9.252;2023-09-18T01:32:57;20.50;70.80
70734;DHT22;58320;48.804;9.252;2023-09-18T01:35:25;20.60;70.20
70734;DHT22;58320;48.804;9.252;2023-09-18T01:37:59;20.80;69.60
70734;DHT22;58320;48.804;9.252;2023-09-18T01:40:25;20.90;69.20
70734;DHT22;58320;48.804;9.252;2023-09-18T01:42:52;20.90;69.00
70734;DHT22;58320;48.804;9.252;2023-09-18T01:45:18;20.90;69.10
70734;DHT22;58320;48.804;9.252;2023-09-18T01:47:45;21.00;69.00
70734;DHT22;58320;48.804;9.252;2023-09-18T01:50:11;21.00;68.70
70734;DHT22;58320;48.804;9.252;2023-09-18T01:52:38;21.10;68.20
70734;DHT22;58320;48.804;9.252;2023-09-18T01:55:04;21.20;67.80
70734;DHT22;58320;48.804;9.252;2023-09-18T01:57:30;21.30;67.80
70734;DHT22;58320;48.804;9.252;2023-09-18T01:59:56;21.30;67.70
70734;DHT22;58320;48.804;9.252;2023-09-18T02:02:22;21.40;67.30
70734;DHT22;58320;48.804;9.252;2023-09-18T02:04:48;21.40;67.10
70734;DHT22;58320;48.804;9.252;2023-09-18T02:07:14;21.40;65.90
70734;DHT22;58320;48.804;9.252;2023-09-18T02:09:39;21.60;65.30
70734;DHT22;58320;48.804;9.252;2023-09-18T02:12:05;21.60;65.90
70734;DHT22;58320;48.804;9.252;2023-09-18T02:14:31;21.60;67.40
70734;DHT22;58320;48.804;9.252;2023-09-18T02:16:57;21.40;75.80
70734;DHT22;58320;48.804;9.252;2023-09-18T02:19:23;20.90;74.90
70734;DHT22;58320;48.804;9.252;2023-09-18T02:21:48;20.60;78.20
70734;DHT22;58320;48.804;9.252;2023-09-18T02:24:14;20.30;78.80
70734;DHT22;58320;48.804;9.252;2023-09-18T02:26:40;20.20;77.00
70734;DHT22;58320;48.804;9.252;2023-09-18T02:29:08;20.20;78.20
70734;DHT22;58320;48.804;9.252;2023-09-18T02:31:39;20.20;76.00
70734;DHT22;58320;48.804;9.252;2023-09-18T02:34:05;20.20;75.80
70734;DHT22;58320;48.804;9.252;2023-09-18T02:36:32;20.10;77.50
70734;DHT22;58320;48.804;9.252;2023-09-18T02:38:58;20.00;77.70
70734;DHT22;58320;48.804;9.252;2023-09-18T02:41:24;20.00;78.40
70734;DHT22;58320;48.804;9.252;2023-09-18T02:43:50;20.00;75.60
70734;DHT22;58320;48.804;9.252;2023-09-18T02:46:15;20.00;76.00
70734;DHT22;58320;48.804;9.252;2023-09-18T02:48:41;19.90;76.10
70734;DHT22;58320;48.804;9.252;2023-09-18T02:51:08;19.90;75.80
70734;DHT22;58320;48.804;9.252;2023-09-18T02:53:34;19.90;76.30
70734;DHT22;58320;48.804;9.252;2023-09-18T02:56:01;20.00;76.80
70734;DHT22;58320;48.804;9.252;2023-09-18T02:58:27;20.00;77.30
70734;DHT22;58320;48.804;9.252;2023-09-18T03:00:56;20.00;77.90
70734;DHT22;58320;48.804;9.252;2023-09-18T03:03:23;19.90;77.30
70734;DHT22;58320;48.804;9.252;2023-09-18T03:05:50;19.90;77.90
70734;DHT22;58320;48.804;9.252;2023-09-18T03:08:16;19.90;78.40
70734;DHT22;58320;48.804;9.252;2023-09-18T03:10:43;19.90;78.60
70734;DHT22;58320;48.804;9.252;2023-09-18T03:13:10;19.80;79.70
70734;DHT22;58320;48.804;9.252;2023-09-18T03:15:37;19.80;79.60
70734;DHT22;58320;48.804;9.252;2023-09-18T03:18:03;19.70;79.20
70734;DHT22;58320;48.804;9.252;2023-09-18T03:20:31;19.60;79.60
70734;DHT22;58320;48.804;9.252;2023-09-18T03:22:58;19.60;80.20
70734;DHT22;58320;48.804;9.252;2023-09-18T03:25:25;19.40;80.70
70734;DHT22;58320;48.804;9.252;2023-09-18T03:27:53;19.40;80.70
70734;DHT22;58320;48.804;9.252;2023-09-18T03:30:21;19.40;81.50
70734;DHT22;58320;48.804;9.252;2023-09-18T03:32:49;19.30;81.20
70734;DHT22;58320;48.804;9.252;2023-09-18T03:35:15;19.30;81.30
70734;DHT22;58320;48.804;9.252;2023-09-18T03:37:53;19.20;81.20
70734;DHT22;58320;48.804;9.252;2023-09-18T03:40:22;19.20;81.80
70734;DHT22;58320;48.804;9.252;2023-09-18T03:42:48;19.10;82.20
70734;DHT22;58320;48.804;9.252;2023-09-18T03:45:14;19.10;83.80
70734;DHT22;58320;48.804;9.252;2023-09-18T03:47:41;19.10;85.10
70734;DHT22;58320;48.804;9.252;2023-09-18T03:50:11;19.00;85.40
70734;DHT22;58320;48.804;9.252;2023-09-18T03:52:38;19.00;84.50
70734;DHT22;58320;48.804;9.252;2023-09-18T03:55:06;19.00;84.50
70734;DHT22;58320;48.804;9.252;2023-09-18T03:57:32;19.00;84.20
70734;DHT22;58320;48.804;9.252;2023-09-18T03:59:58;19.10;83.70
70734;DHT22;58320;48.804;9.252;2023-09-18T04:02:25;19.10;84.00
70734;DHT22;58320;48.804;9.252;2023-09-18T04:04:51;19.20;84.70
70734;DHT22;58320;48.804;9.252;2023-09-18T04:07:18;19.20;84.40
70734;DHT22;58320;48.804;9.252;2023-09-18T04:09:45;19.20;84.40
70734;DHT22;58320;48.804;9.252;2023-09-18T04:12:11;19.30;83.80
70734;DHT22;58320;48.804;9.252;2023-09-18T04:14:38;19.30;83.30
70734;DHT22;58320;48.804;9.252;2023-09-18T04:17:04;19.30;83.10
70734;DHT22;58320;48.804;9.252;2023-09-18T04:19:30;19.30;83.10
70734;DHT22;58320;48.804;9.252;2023-09-18T04:21:56;19.30;83.20
70734;DHT22;58320;48.804;9.252;2023-09-18T04:24:23;19.30;82.50
70734;DHT22;58320;48.804;9.252;2023-09-18T04:26:49;19.30;82.30
70734;DHT22;58320;48.804;9.252;2023-09-18T04:29:18;19.30;82.20
70734;DHT22;58320;48.804;9.252;2023-09-18T04:31:45;19.30;82.50
70734;DHT22;58320;48.804;9.252;2023-09-18T04:34:10;19.20;82.00
70734;DHT22;58320;48.804;9.252;2023-09-18T04:36:37;19.20;82.10
70734;DHT22;58320;48.804;9.252;2023-09-18T04:39:04;19.20;82.40
70734;DHT22;58320;48.804;9.252;2023-09-18T04:41:31;19.30;81.90
70734;DHT22;58320;48.804;9.252;2023-09-18T04:43:57;19.30;80.80
70734;DHT22;58320;48.804;9.252;2023-09-18T04:46:22;19.30;80.20
70734;DHT22;58320;48.804;9.252;2023-09-18T04:48:50;19.40;79.90
70734;DHT22;58320;48.804;9.252;2023-09-18T04:51:16;19.40;79.30
70734;DHT22;58320;48.804;9.252;2023-09-18T04:53:42;19.40;80.20
70734;DHT22;58320;48.804;9.252;2023-09-18T04:56:08;19.30;80.20
70734;DHT22;58320;48.804;9.252;2023-09-18T04:58:36;19.30;80.90
70734;DHT22;58320;48.804;9.252;2023-09-18T05:01:02;19.30;81.60
70734;DHT22;58320;48.804;9.252;2023-09-18T05:03:30;19.30;81.70
70734;DHT22;58320;48.804;9.252;2023-09-18T05:05:56;19.30;81.60
70734;DHT22;58320;48.804;9.252;2023-09-18T05:08:21;19.30;81.50
70734;DHT22;58320;48.804;9.252;2023-09-18T05:10:48;19.20;80.70
70734;DHT22;58320;48.804;9.252;2023-09-18T05:13:14;19.20;81.10
70734;DHT22;58320;48.804;9.252;2023-09-18T05:15:39;19.30;80.90
70734;DHT22;58320;48.804;9.252;2023-09-18T05:18:05;19.30;80.10
70734;DHT22;58320;48.804;9.252;2023-09-18T05:20:33;19.40;79.30
70734;DHT22;58320;48.804;9.252;2023-09-18T05:22:59;19.50;78.60
70734;DHT22;58320;48.804;9.252;2023-09-18T05:25:28;19.50;78.30
70734;DHT22;58320;48.804;9.252;2023-09-18T05:27:58;19.60;78.20
70734;DHT22;58320;48.804;9.252;2023-09-18T05:30:29;19.60;77.90
70734;DHT22;58320;48.804;9.252;2023-09-18T05:33:00;19.60;78.10
70734;DHT22;58320;48.804;9.252;2023-09-18T05:35:50;19.60;78.30
70734;DHT22;58320;48.804;9.252;2023-09-18T05:38:16;19.50;78.30
70734;DHT22;58320;48.804;9.252;2023-09-18T05:40:43;19.50;78.50
70734;DHT22;58320;48.804;9.252;2023-09-18T05:43:10;19.50;78.40
70734;DHT22;58320;48.804;9.252;2023-09-18T05:45:37;19.50;81.40
70734;DHT22;58320;48.804;9.252;2023-09-18T05:48:03;19.40;81.40
70734;DHT22;58320;48.804;9.252;2023-09-18T05:50:31;19.30;83.10
70734;DHT22;58320;48.804;9.252;2023-09-18T05:52:58;19.20;82.50
70734;DHT22;58320;48.804;9.252;2023-09-18T05:55:33;19.20;82.10
70734;DHT22;58320;48.804;9.252;2023-09-18T05:57:59;19.10;82.00
70734;DHT22;58320;48.804;9.252;2023-09-18T06:00:26;19.20;81.70
70734;DHT22;58320;48.804;9.252;2023-09-18T06:02:52;19.30;80.90
70734;DHT22;58320;48.804;9.252;2023-09-18T06:05:18;19.30;79.40
70734;DHT22;58320;48.804;9.252;2023-09-18T06:07:50;19.40;78.90
70734;DHT22;58320;48.804;9.252;2023-09-18T06:10:16;19.50;78.40
70734;DHT22;58320;48.804;9.252;2023-09-18T06:12:43;19.50;78.70
70734;DHT22;58320;48.804;9.252;2023-09-18T06:15:10;19.50;78.20
70734;DHT22;58320;48.804;9.252;2023-09-18T06:17:41;19.50;78.00
70734;DHT22;58320;48.804;9.252;2023-09-18T06:20:08;19.50;78.00
70734;DHT22;58320;48.804;9.252;2023-09-18T06:22:36;19.60;78.10
70734;DHT22;58320;48.804;9.252;2023-09-18T06:25:03;19.60;77.50
70734;DHT22;58320;48.804;9.252;2023-09-18T06:27:30;19.60;77.40
70734;DHT22;58320;48.804;9.252;2023-09-18T06:29:57;19.70;77.20
70734;DHT22;58320;48.804;9.252;2023-09-18T06:32:23;19.70;77.20
70734;DHT22;58320;48.804;9.252;2023-09-18T06:34:49;19.80;77.40
70734;DHT22;58320;48.804;9.252;2023-09-18T06:37:14;19.80;79.10
70734;DHT22;58320;48.804;9.252;2023-09-18T06:39:41;19.70;79.10
70734;DHT22;58320;48.804;9.252;2023-09-18T06:42:07;19.70;81.00
70734;DHT22;58320;48.804;9.252;2023-09-18T06:44:33;19.50;82.40
70734;DHT22;58320;48.804;9.252;2023-09-18T06:46:59;19.40;83.30
70734;DHT22;58320;48.804;9.252;2023-09-18T06:49:27;19.40;83.20
70734;DHT22;58320;48.804;9.252;2023-09-18T06:51:53;19.20;86.60
70734;DHT22;58320;48.804;9.252;2023-09-18T06:54:19;19.00;86.50
70734;DHT22;58320;48.804;9.252;2023-09-18T06:56:45;19.00;86.40
70734;DHT22;58320;48.804;9.252;2023-09-18T06:59:10;19.00;86.80
70734;DHT22;58320;48.804;9.252;2023-09-18T07:01:37;19.00;87.70
70734;DHT22;58320;48.804;9.252;2023-09-18T07:04:03;19.00;87.80
70734;DHT22;58320;48.804;9.252;2023-09-18T07:06:30;19.00;85.80
70734;DHT22;58320;48.804;9.252;2023-09-18T07:08:56;19.10;84.80
70734;DHT22;58320;48.804;9.252;2023-09-18T07:11:22;19.10;86.80
70734;DHT22;58320;48.804;9.252;2023-09-18T07:13:47;19.20;85.50
70734;DHT22;58320;48.804;9.252;2023-09-18T07:16:14;19.30;85.00
70734;DHT22;58320;48.804;9.252;2023-09-18T07:18:40;19.40;83.80
70734;DHT22;58320;48.804;9.252;2023-09-18T07:21:07;19.50;84.20
70734;DHT22;58320;48.804;9.252;2023-09-18T07:23:32;19.60;82.80
70734;DHT22;58320;48.804;9.252;2023-09-18T07:26:02;19.70;83.20
70734;DHT22;58320;48.804;9.252;2023-09-18T07:28:28;19.90;82.00
70734;DHT22;58320;48.804;9.252;2023-09-18T07:30:54;20.00;80.10
70734;DHT22;58320;48.804;9.252;2023-09-18T07:33:19;20.00;79.70
70734;DHT22;58320;48.804;9.252;2023-09-18T07:35:49;20.10;79.60
70734;DHT22;58320;48.804;9.252;2023-09-18T07:38:17;20.10;80.40
70734;DHT22;58320;48.804;9.252;2023-09-18T07:40:45;20.10;78.90
70734;DHT22;58320;48.804;9.252;2023-09-18T07:43:12;20.20;79.50
70734;DHT22;58320;48.804;9.252;2023-09-18T07:45:39;20.20;80.30
70734;DHT22;58320;48.804;9.252;2023-09-18T07:48:06;20.20;78.80
70734;DHT22;58320;48.804;9.252;2023-09-18T07:50:33;20.30;78.40
70734;DHT22;58320;48.804;9.252;2023-09-18T07:53:00;20.30;78.20
70734;DHT22;58320;48.804;9.252;2023-09-18T07:55:26;20.50;78.70
70734;DHT22;58320;48.804;9.252;2023-09-18T07:57:58;20.70;75.30
70734;DHT22;58320;48.804;9.252;2023-09-18T08:00:24;20.80;75.40
70734;DHT22;58320;48.804;9.252;2023-09-18T08:02:52;21.00;75.00
70734;DHT22;58320;48.804;9.252;2023-09-18T08:05:24;21.30;74.20
70734;DHT22;58320;48.804;9.252;2023-09-18T08:07:53;21.50;72.90
70734;DHT22;58320;48.804;9.252;2023-09-18T08:10:23;21.80;72.90
70734;DHT22;58320;48.804;9.252;2023-09-18T08:12:49;22.00;69.00
70734;DHT22;58320;48.804;9.252;2023-09-18T08:15:16;21.90;66.60
70734;DHT22;58320;48.804;9.252;2023-09-18T08:17:42;21.80;67.80
70734;DHT22;58320;48.804;9.252;2023-09-18T08:20:09;21.80;66.40
70734;DHT22;58320;48.804;9.252;2023-09-18T08:22:38;21.60;67.30
70734;DHT22;58320;48.804;9.252;2023-09-18T08:25:06;21.50;66.80
70734;DHT22;58320;48.804;9.252;2023-09-18T08:27:37;21.30;67.30
70734;DHT22;58320;48.804;9.252;2023-09-18T08:30:07;21.30;68.00
70734;DHT22;58320;48.804;9.252;2023-09-18T08:32:39;21.20;69.20
70734;DHT22;58320;48.804;9.252;2023-09-18T08:35:06;21.10;69.70
70734;DHT22;58320;48.804;9.252;2023-09-18T08:37:32;21.00;69.80
70734;DHT22;58320;48.804;9.252;2023-09-18T08:39:58;20.90;70.10
70734;DHT22;58320;48.804;9.252;2023-09-18T08:42:29;20.80;70.70
70734;DHT22;58320;48.804;9.252;2023-09-18T08:44:57;20.60;73.40
70734;DHT22;58320;48.804;9.252;2023-09-18T08:47:24;20.50;74.80
70734;DHT22;58320;48.804;9.252;2023-09-18T08:49:51;20.40;73.60
70734;DHT22;58320;48.804;9.252;2023-09-18T08:52:18;20.20;75.80
70734;DHT22;58320;48.804;9.252;2023-09-18T08:54:45;20.00;76.60
70734;DHT22;58320;48.804;9.252;2023-09-18T08:57:12;19.90;78.00
70734;DHT22;58320;48.804;9.252;2023-09-18T08:59:39;19.90;77.20
70734;DHT22;58320;48.804;9.252;2023-09-18T09:02:06;19.80;78.50
70734;DHT22;58320;48.804;9.252;2023-09-18T09:04:38;19.70;79.20
70734;DHT22;58320;48.804;9.252;2023-09-18T09:07:04;19.20;83.60
70734;DHT22;58320;48.804;9.252;2023-09-18T09:09:30;18.70;87.20
70734;DHT22;58320;48.804;9.252;2023-09-18T09:11:56;18.30;92.20
70734;DHT22;58320;48.804;9.252;2023-09-18T09:14:22;18.10;93.00
70734;DHT22;58320;48.804;9.252;2023-09-18T09:16:54;18.00;94.70
70734;DHT22;58320;48.804;9.252;2023-09-18T09:19:35;17.90;97.90
70734;DHT22;58320;48.804;9.252;2023-09-18T09:22:04;18.00;98.00
70734;DHT22;58320;48.804;9.252;2023-09-18T09:24:37;18.10;99.00
70734;DHT22;58320;48.804;9.252;2023-09-18T09:27:03;18.20;98.90
70734;DHT22;58320;48.804;9.252;2023-09-18T09:29:29;18.20;96.60
70734;DHT22;58320;48.804;9.252;2023-09-18T09:31:56;18.20;93.50
70734;DHT22;58320;48.804;9.252;2023-09-18T09:34:26;18.20;94.50
70734;DHT22;58320;48.804;9.252;2023-09-18T09:36:53;18.30;96.00
70734;DHT22;58320;48.804;9.252;2023-09-18T09:39:20;18.40;94.50
70734;DHT22;58320;48.804;9.252;2023-09-18T09:41:51;18.40;94.90
70734;DHT22;58320;48.804;9.252;2023-09-18T09:44:18;18.30;95.10
70734;DHT22;58320;48.804;9.252;2023-09-18T09:46:50;18.30;93.50
70734;DHT22;58320;48.804;9.252;2023-09-18T09:49:17;18.40;95.90
70734;DHT22;58320;48.804;9.252;2023-09-18T09:51:45;18.60;94.40
70734;DHT22;58320;48.804;9.252;2023-09-18T09:54:12;18.70;94.10
70734;DHT22;58320;48.804;9.252;2023-09-18T09:56:46;18.80;90.80
70734;DHT22;58320;48.804;9.252;2023-09-18T09:59:15;19.10;86.80
70734;DHT22;58320;48.804;9.252;2023-09-18T10:01:41;19.10;87.70
70734;DHT22;58320;48.804;9.252;2023-09-18T10:04:12;19.30;88.10
70734;DHT22;58320;48.804;9.252;2023-09-18T10:06:56;19.50;88.20
70734;DHT22;58320;48.804;9.252;2023-09-18T10:09:26;19.90;85.80
70734;DHT22;58320;48.804;9.252;2023-09-18T10:11:55;20.20;85.00
70734;DHT22;58320;48.804;9.252;2023-09-18T10:14:32;20.20;86.10
70734;DHT22;58320;48.804;9.252;2023-09-18T10:17:09;20.10;84.00
70734;DHT22;58320;48.804;9.252;2023-09-18T10:22:36;19.70;84.80
70734;DHT22;58320;48.804;9.252;2023-09-18T10:25:24;19.40;86.20
70734;DHT22;58320;48.804;9.252;2023-09-18T10:27:51;19.20;86.50
70734;DHT22;58320;48.804;9.252;2023-09-18T10:30:24;19.20;87.30
70734;DHT22;58320;48.804;9.252;2023-09-18T10:32:51;19.30;86.50
70734;DHT22;58320;48.804;9.252;2023-09-18T10:35:17;19.20;87.30
70734;DHT22;58320;48.804;9.252;2023-09-18T10:37:45;19.20;87.10
70734;DHT22;58320;48.804;9.252;2023-09-18T10:40:12;19.20;87.20
70734;DHT22;58320;48.804;9.252;2023-09-18T10:42:40;19.10;87.50
70734;DHT22;58320;48.804;9.252;2023-09-18T10:45:09;19.10;88.50
70734;DHT22;58320;48.804;9.252;2023-09-18T10:47:41;19.00;88.40
70734;DHT22;58320;48.804;9.252;2023-09-18T10:50:09;19.00;89.20
70734;DHT22;58320;48.804;9.252;2023-09-18T10:52:35;19.00;91.10
70734;DHT22;58320;48.804;9.252;2023-09-18T10:55:03;19.00;90.30
70734;DHT22;58320;48.804;9.252;2023-09-18T10:57:34;19.00;89.80
70734;DHT22;58320;48.804;9.252;2023-09-18T11:00:01;19.00;89.80
70734;DHT22;58320;48.804;9.252;2023-09-18T11:02:40;18.90;88.80
70734;DHT22;58320;48.804;9.252;2023-09-18T11:05:06;18.90;89.30
70734;DHT22;58320;48.804;9.252;2023-09-18T11:07:32;18.80;87.60
70734;DHT22;58320;48.804;9.252;2023-09-18T11:09:58;18.80;86.80
70734;DHT22;58320;48.804;9.252;2023-09-18T11:12:43;18.80;88.00
70734;DHT22;58320;48.804;9.252;2023-09-18T11:15:25;18.70;87.30
70734;DHT22;58320;48.804;9.252;2023-09-18T11:17:59;18.70;87.80
70734;DHT22;58320;48.804;9.252;2023-09-18T11:20:28;18.70;87.50
70734;DHT22;58320;48.804;9.252;2023-09-18T11:25:42;18.80;88.40
70734;DHT22;58320;48.804;9.252;2023-09-18T11:28:24;18.90;86.60
70734;DHT22;58320;48.804;9.252;2023-09-18T11:30:55;19.00;87.70
70734;DHT22;58320;48.804;9.252;2023-09-18T11:33:36;19.10;88.10
70734;DHT22;58320;48.804;9.252;2023-09-18T11:36:13;19.10;88.70
70734;DHT22;58320;48.804;9.252;2023-09-18T11:38:55;19.10;87.40
70734;DHT22;58320;48.804;9.252;2023-09-18T11:41:30;19.00;87.80
70734;DHT22;58320;48.804;9.252;2023-09-18T11:46:50;19.00;87.10
70734;DHT22;58320;48.804;9.252;2023-09-18T11:49:24;19.00;87.50
70734;DHT22;58320;48.804;9.252;2023-09-18T11:51:53;19.00;88.10
70734;DHT22;58320;48.804;9.252;2023-09-18T11:54:20;19.10;88.00
70734;DHT22;58320;48.804;9.252;2023-09-18T11:56:48;19.10;86.40
70734;DHT22;58320;48.804;9.252;2023-09-18T11:59:14;19.10;85.20
70734;DHT22;58320;48.804;9.252;2023-09-18T12:01:40;19.20;82.80
70734;DHT22;58320;48.804;9.252;2023-09-18T12:04:06;19.30;83.60
70734;DHT22;58320;48.804;9.252;2023-09-18T12:06:39;19.40;83.90
70734;DHT22;58320;48.804;9.252;2023-09-18T12:09:06;19.50;82.00
70734;DHT22;58320;48.804;9.252;2023-09-18T12:11:33;19.50;82.20
70734;DHT22;58320;48.804;9.252;2023-09-18T12:14:03;19.60;82.40
70734;DHT22;58320;48.804;9.252;2023-09-18T12:16:30;19.70;80.10
70734;DHT22;58320;48.804;9.252;2023-09-18T12:18:55;19.90;78.90
70734;DHT22;58320;48.804;9.252;2023-09-18T12:21:22;20.00;79.60
70734;DHT22;58320;48.804;9.252;2023-09-18T12:23:48;19.80;79.30
70734;DHT22;58320;48.804;9.252;2023-09-18T12:26:15;19.80;79.80
70734;DHT22;58320;48.804;9.252;2023-09-18T12:28:42;19.80;79.30
70734;DHT22;58320;48.804;9.252;2023-09-18T12:31:12;19.80;79.00
70734;DHT22;58320;48.804;9.252;2023-09-18T12:33:40;19.60;80.30
70734;DHT22;58320;48.804;9.252;2023-09-18T12:36:08;19.60;81.20
70734;DHT22;58320;48.804;9.252;2023-09-18T12:38:34;19.70;79.90
70734;DHT22;58320;48.804;9.252;2023-09-18T12:41:03;19.80;79.90
70734;DHT22;58320;48.804;9.252;2023-09-18T12:43:40;19.80;79.50
70734;DHT22;58320;48.804;9.252;2023-09-18T12:46:09;20.10;79.10
70734;DHT22;58320;48.804;9.252;2023-09-18T12:48:39;20.20;78.20
70734;DHT22;58320;48.804;9.252;2023-09-18T12:51:11;20.70;77.00
70734;DHT22;58320;48.804;9.252;2023-09-18T12:53:37;21.30;75.10
70734;DHT22;58320;48.804;9.252;2023-09-18T12:56:07;21.60;74.10
70734;DHT22;58320;48.804;9.252;2023-09-18T12:58:35;22.20;71.50
70734;DHT22;58320;48.804;9.252;2023-09-18T13:01:06;22.70;70.30
70734;DHT22;58320;48.804;9.252;2023-09-18T13:03:44;23.10;69.50
70734;DHT22;58320;48.804;9.252;2023-09-18T13:06:15;23.40;69.00
70734;DHT22;58320;48.804;9.252;2023-09-18T13:08:46;23.40;69.10
70734;DHT22;58320;48.804;9.252;2023-09-18T13:11:12;22.90;68.10
70734;DHT22;58320;48.804;9.252;2023-09-18T13:13:41;22.60;68.70
70734;DHT22;58320;48.804;9.252;2023-09-18T13:16:09;23.00;69.20
70734;DHT22;58320;48.804;9.252;2023-09-18T13:18:35;23.20;67.10
70734;DHT22;58320;48.804;9.252;2023-09-18T13:21:09;22.90;67.60
70734;DHT22;58320;48.804;9.252;2023-09-18T13:23:37;22.70;69.50
70734;DHT22;58320;48.804;9.252;2023-09-18T13:26:05;23.00;67.20
70734;DHT22;58320;48.804;9.252;2023-09-18T13:28:33;23.10;66.20
70734;DHT22;58320;48.804;9.252;2023-09-18T13:31:04;23.10;66.90
70734;DHT22;58320;48.804;9.252;2023-09-18T13:33:32;23.10;66.00
70734;DHT22;58320;48.804;9.252;2023-09-18T13:35:59;23.00;67.10
70734;DHT22;58320;48.804;9.252;2023-09-18T13:38:25;23.30;65.10
70734;DHT22;58320;48.804;9.252;2023-09-18T13:40:53;23.50;64.90
70734;DHT22;58320;48.804;9.252;2023-09-18T13:43:20;24.30;63.80
70734;DHT22;58320;48.804;9.252;2023-09-18T13:45:48;25.10;60.20
70734;DHT22;58320;48.804;9.252;2023-09-18T13:48:17;25.20;59.20
70734;DHT22;58320;48.804;9.252;2023-09-18T13:50:43;25.10;60.20
70734;DHT22;58320;48.804;9.252;2023-09-18T13:53:10;25.10;59.30
70734;DHT22;58320;48.804;9.252;2023-09-18T13:55:36;24.70;59.00
70734;DHT22;58320;48.804;9.252;2023-09-18T13:58:02;24.50;60.20
70734;DHT22;58320;48.804;9.252;2023-09-18T14:00:28;23.70;61.70
70734;DHT22;58320;48.804;9.252;2023-09-18T14:02:54;23.30;64.30
70734;DHT22;58320;48.804;9.252;2023-09-18T14:05:20;23.30;64.60
70734;DHT22;58320;48.804;9.252;2023-09-18T14:07:46;23.40;62.00
70734;DHT22;58320;48.804;9.252;2023-09-18T14:10:13;23.50;62.00
70734;DHT22;58320;48.804;9.252;2023-09-18T14:12:43;23.60;62.30
70734;DHT22;58320;48.804;9.252;2023-09-18T14:15:10;23.30;62.40
70734;DHT22;58320;48.804;9.252;2023-09-18T14:17:36;23.30;62.00
70734;DHT22;58320;48.804;9.252;2023-09-18T14:20:04;23.20;63.10
70734;DHT22;58320;48.804;9.252;2023-09-18T14:22:35;23.40;63.20
70734;DHT22;58320;48.804;9.252;2023-09-18T14:25:01;23.50;62.40
70734;DHT22;58320;48.804;9.252;2023-09-18T14:27:31;23.60;62.10
70734;DHT22;58320;48.804;9.252;2023-09-18T14:29:57;23.80;59.90
70734;DHT22;58320;48.804;9.252;2023-09-18T14:32:23;23.80;60.50
70734;DHT22;58320;48.804;9.252;2023-09-18T14:34:49;23.90;59.80
70734;DHT22;58320;48.804;9.252;2023-09-18T14:37:15;23.90;59.80
70734;DHT22;58320;48.804;9.252;2023-09-18T14:39:40;23.90;60.10
70734;DHT22;58320;48.804;9.252;2023-09-18T14:42:06;23.50;59.80
70734;DHT22;58320;48.804;9.252;2023-09-18T14:44:32;23.50;60.20
70734;DHT22;58320;48.804;9.252;2023-09-18T14:46:58;23.60;60.70
70734;DHT22;58320;48.804;9.252;2023-09-18T14:49:25;24.10;58.20
70734;DHT22;58320;48.804;9.252;2023-09-18T14:51:53;24.40;58.00
70734;DHT22;58320;48.804;9.252;2023-09-18T14:54:19;25.10;55.80
70734;DHT22;58320;48.804;9.252;2023-09-18T14:56:45;25.40;55.70
70734;DHT22;58320;48.804;9.252;2023-09-18T14:59:12;26.20;53.20
70734;DHT22;58320;48.804;9.252;2023-09-18T15:01:38;26.40;52.80
70734;DHT22;58320;48.804;9.252;2023-09-18T15:04:04;26.30;52.20
70734;DHT22;58320;48.804;9.252;2023-09-18T15:06:30;26.90;51.50
70734;DHT22;58320;48.804;9.252;2023-09-18T15:08:56;27.40;51.10
70734;DHT22;58320;48.804;9.252;2023-09-18T15:11:22;27.20;49.90
70734;DHT22;58320;48.804;9.252;2023-09-18T15:13:48;26.40;52.20
70734;DHT22;58320;48.804;9.252;2023-09-18T15:16:14;25.60;53.70
70734;DHT22;58320;48.804;9.252;2023-09-18T15:18:40;24.90;55.30
70734;DHT22;58320;48.804;9.252;2023-09-18T15:21:06;25.10;56.10
70734;DHT22;58320;48.804;9.252;2023-09-18T15:23:32;25.10;55.90
70734;DHT22;58320;48.804;9.252;2023-09-18T15:25:58;24.70;56.60
70734;DHT22;58320;48.804;9.252;2023-09-18T15:28:24;24.40;56.40
70734;DHT22;58320;48.804;9.252;2023-09-18T15:30:52;24.40;57.10
70734;DHT22;58320;48.804;9.252;2023-09-18T15:33:18;24.70;56.60
70734;DHT22;58320;48.804;9.252;2023-09-18T15:35:44;24.50;56.80
70734;DHT22;58320;48.804;9.252;2023-09-18T15:38:10;24.40;56.80
70734;DHT22;58320;48.804;9.252;2023-09-18T15:40:37;24.80;56.30
70734;DHT22;58320;48.804;9.252;2023-09-18T15:43:03;25.20;55.50